createdAt,value
2022-10-26T00:01:06.286Z,13.67
2022-10-26T00:03:35.684Z,11.80
2022-10-26T00:06:08.575Z,13.43
2022-10-26T00:08:37.047Z,15.33
2022-10-26T00:11:07.527Z,14.80
2022-10-26T00:13:36.588Z,14.13
2022-10-26T00:16:10.046Z,17.43
2022-10-26T00:18:38.098Z,15.10
2022-10-26T00:21:07.129Z,14.67
2022-10-26T00:23:35.514Z,13.30
2022-10-26T00:26:03.621Z,13.63
2022-10-26T00:28:33.021Z,13.23
2022-10-26T00:31:02.953Z,15.13
2022-10-26T00:33:31.095Z,13.10
2022-10-26T00:35:59.163Z,15.47
2022-10-26T00:38:27.205Z,14.57
2022-10-26T00:40:55.260Z,15.00
2022-10-26T00:43:38.686Z,15.30
2022-10-26T00:46:11.870Z,11.70
2022-10-26T00:48:44.167Z,12.80
2022-10-26T00:51:16.659Z,13.80
2022-10-26T00:53:45.469Z,18.30
2022-10-26T00:56:13.668Z,13.00
2022-10-26T00:58:44.071Z,12.73
2022-10-26T01:01:12.468Z,14.27
2022-10-26T01:03:40.794Z,12.17
2022-10-26T01:06:10.320Z,14.37
2022-10-26T01:08:38.922Z,13.93
2022-10-26T01:11:07.275Z,12.50
2022-10-26T01:13:36.899Z,13.47
2022-10-26T01:16:21.606Z,15.00
2022-10-26T01:19:00.283Z,13.47
2022-10-26T01:21:52.949Z,12.83
2022-10-26T01:24:35.002Z,14.23
2022-10-26T01:27:30.822Z,12.33
2022-10-26T01:30:25.110Z,14.67
2022-10-26T01:33:13.807Z,14.47
2022-10-26T01:35:50.998Z,14.43
2022-10-26T01:38:26.649Z,12.33
2022-10-26T01:41:03.546Z,13.67
2022-10-26T01:43:34.874Z,12.73
2022-10-26T01:46:05.850Z,15.97
2022-10-26T01:48:34.611Z,13.23
2022-10-26T01:51:04.761Z,13.83
2022-10-26T01:53:32.825Z,16.33
2022-10-26T01:56:02.382Z,14.53
2022-10-26T01:58:54.258Z,14.03
2022-10-26T02:01:36.453Z,13.07
2022-10-26T02:04:12.104Z,13.47
2022-10-26T02:06:52.986Z,14.37
2022-10-26T02:09:27.676Z,14.10
2022-10-26T02:11:56.838Z,13.23
2022-10-26T02:14:33.656Z,15.17
2022-10-26T02:17:08.463Z,13.13
2022-10-26T02:19:41.689Z,11.50
2022-10-26T02:22:15.186Z,14.97
2022-10-26T02:24:44.666Z,12.63
2022-10-26T02:27:17.289Z,14.27
2022-10-26T02:29:45.678Z,14.00
2022-10-26T02:32:15.495Z,13.90
2022-10-26T02:34:46.795Z,15.17
2022-10-26T02:37:16.252Z,16.30
2022-10-26T02:39:45.964Z,14.00
2022-10-26T02:42:16.503Z,15.40
2022-10-26T02:44:49.536Z,16.20
2022-10-26T02:47:20.373Z,14.77
2022-10-26T02:49:48.893Z,16.57
2022-10-26T02:52:24.127Z,15.43
2022-10-26T02:54:56.053Z,13.87
2022-10-26T02:57:27.985Z,14.50
2022-10-26T02:59:56.834Z,16.37
2022-10-26T03:02:26.595Z,14.87
2022-10-26T03:04:56.516Z,16.40
2022-10-26T03:07:24.973Z,16.00
2022-10-26T03:09:53.241Z,17.43
2022-10-26T03:12:21.265Z,16.17
2022-10-26T03:14:49.261Z,17.57
2022-10-26T03:17:17.247Z,18.73
2022-10-26T03:19:46.613Z,14.27
2022-10-26T03:22:14.818Z,17.97
2022-10-26T03:24:42.825Z,20.13
2022-10-26T03:27:10.794Z,16.30
2022-10-26T03:29:38.774Z,18.77
2022-10-26T03:32:07.339Z,21.90
2022-10-26T03:34:35.382Z,20.67
2022-10-26T03:37:04.770Z,19.77
2022-10-26T03:39:32.791Z,16.60
2022-10-26T03:42:00.802Z,18.50
2022-10-26T03:44:28.791Z,19.87
2022-10-26T03:46:56.805Z,20.07
2022-10-26T03:49:24.862Z,19.03
2022-10-26T03:51:52.918Z,21.53
2022-10-26T03:54:22.265Z,23.63
2022-10-26T03:56:52.730Z,23.47
2022-10-26T03:59:23.100Z,20.17
2022-10-26T04:01:54.041Z,21.83
2022-10-26T04:04:24.987Z,21.67
2022-10-26T04:06:53.154Z,18.80
2022-10-26T04:09:22.515Z,19.73
2022-10-26T04:11:50.549Z,22.10
2022-10-26T04:14:18.534Z,20.57
2022-10-26T04:16:46.531Z,18.50
2022-10-26T04:19:14.513Z,19.47
2022-10-26T04:21:42.514Z,19.47
2022-10-26T04:24:11.715Z,19.30
2022-10-26T04:26:41.042Z,19.27
2022-10-26T04:29:09.279Z,23.70
2022-10-26T04:31:37.366Z,22.60
2022-10-26T04:34:05.407Z,20.40
2022-10-26T04:36:34.549Z,19.90
2022-10-26T04:39:02.754Z,20.17
2022-10-26T04:41:30.726Z,22.93
2022-10-26T04:44:00.129Z,20.20
2022-10-26T04:46:28.128Z,22.30
2022-10-26T04:48:56.099Z,21.00
2022-10-26T04:51:24.584Z,22.10
2022-10-26T04:53:54.990Z,23.63
2022-10-26T04:56:23.012Z,22.27
2022-10-26T04:58:51.031Z,21.83
2022-10-26T05:01:20.512Z,23.27
2022-10-26T05:03:50.762Z,20.40
2022-10-26T05:06:18.774Z,21.30
2022-10-26T05:08:47.060Z,20.37
2022-10-26T05:11:15.149Z,22.70
2022-10-26T05:13:43.214Z,21.60
2022-10-26T05:16:11.242Z,22.40
2022-10-26T05:18:40.594Z,22.57
2022-10-26T05:21:08.671Z,24.90
2022-10-26T05:23:36.650Z,22.73
2022-10-26T05:26:04.834Z,22.47
2022-10-26T05:28:32.826Z,22.67
2022-10-26T05:31:01.046Z,23.57
2022-10-26T05:33:28.993Z,19.03
2022-10-26T05:35:58.317Z,19.57
2022-10-26T05:41:01.153Z,20.53
2022-10-26T05:43:30.271Z,20.33
2022-10-26T05:45:58.442Z,20.23
2022-10-26T05:48:26.556Z,20.53
2022-10-26T05:50:54.633Z,18.53
2022-10-26T05:53:23.999Z,20.03
2022-10-26T05:55:52.588Z,21.53
2022-10-26T05:58:21.118Z,21.37
2022-10-26T06:01:00.787Z,18.40
2022-10-26T06:03:42.573Z,20.10
2022-10-26T06:06:13.081Z,17.87
2022-10-26T06:08:43.522Z,19.13
2022-10-26T06:11:12.378Z,18.80
2022-10-26T06:13:40.930Z,20.57
2022-10-26T06:16:23.035Z,20.60
2022-10-26T06:19:02.132Z,17.10
2022-10-26T06:21:49.193Z,21.13
2022-10-26T06:24:25.350Z,17.80
2022-10-26T06:26:58.960Z,19.00
2022-10-26T06:29:40.914Z,18.20
2022-10-26T06:32:10.171Z,17.70
2022-10-26T06:34:43.989Z,17.80
2022-10-26T06:37:13.362Z,16.93
2022-10-26T06:39:48.809Z,16.63
2022-10-26T06:42:20.557Z,18.63
2022-10-26T06:44:49.203Z,16.67
2022-10-26T06:47:24.055Z,15.57
2022-10-26T06:50:01.252Z,16.43
2022-10-26T06:52:36.445Z,14.63
2022-10-26T06:55:07.009Z,18.23
2022-10-26T06:57:36.871Z,12.87
2022-10-26T07:00:08.343Z,13.33
2022-10-26T07:02:36.525Z,15.93
2022-10-26T07:05:04.894Z,14.03
2022-10-26T07:07:32.998Z,15.60
2022-10-26T07:10:01.923Z,15.57
2022-10-26T07:12:32.993Z,16.47
2022-10-26T07:15:01.541Z,13.37
2022-10-26T07:17:30.543Z,14.97
2022-10-26T07:19:58.673Z,13.30
2022-10-26T07:22:26.713Z,13.23
2022-10-26T07:24:56.987Z,14.03
2022-10-26T07:27:27.290Z,14.87
2022-10-26T07:29:56.667Z,15.63
2022-10-26T07:32:24.722Z,11.17
2022-10-26T07:34:52.694Z,12.50
2022-10-26T07:37:20.730Z,14.93
2022-10-26T07:39:48.710Z,13.80
2022-10-26T07:42:16.954Z,14.57
2022-10-26T07:44:44.951Z,12.03
2022-10-26T07:47:14.402Z,12.67
2022-10-26T07:49:42.487Z,13.50
2022-10-26T07:52:10.992Z,13.77
2022-10-26T07:54:39.019Z,13.40
2022-10-26T07:57:07.017Z,13.60
2022-10-26T07:59:35.109Z,14.43
2022-10-26T08:02:03.181Z,13.63
2022-10-26T08:04:32.887Z,14.97
2022-10-26T08:07:00.982Z,12.80
2022-10-26T08:09:29.014Z,13.83
2022-10-26T08:11:57.023Z,13.70
2022-10-26T08:14:25.046Z,11.87
2022-10-26T08:16:53.035Z,13.57
2022-10-26T08:19:21.230Z,14.83
2022-10-26T08:21:50.610Z,12.07
2022-10-26T08:24:18.574Z,14.37
2022-10-26T08:26:47.007Z,13.70
2022-10-26T08:29:15.063Z,15.10
2022-10-26T08:31:43.332Z,14.47
2022-10-26T08:34:11.349Z,14.20
2022-10-26T08:36:39.434Z,12.43
2022-10-26T08:39:08.843Z,11.27
2022-10-26T08:41:39.561Z,11.23
2022-10-26T08:44:21.767Z,12.37
2022-10-26T08:46:54.607Z,11.13
2022-10-26T08:49:26.829Z,9.43
2022-10-26T08:51:58.911Z,11.10
2022-10-26T08:54:35.762Z,9.33
2022-10-26T08:57:14.565Z,11.20
2022-10-26T08:59:48.670Z,10.30
2022-10-26T09:02:19.022Z,8.37
2022-10-26T09:04:47.318Z,10.03
2022-10-26T09:07:25.866Z,7.83
2022-10-26T09:10:01.097Z,9.87
2022-10-26T09:12:41.904Z,10.40
2022-10-26T09:15:18.881Z,7.17
2022-10-26T09:17:57.434Z,9.37
2022-10-26T09:20:50.609Z,8.40
2022-10-26T09:23:41.574Z,8.07
2022-10-26T09:26:15.501Z,7.47
2022-10-26T09:28:47.687Z,8.20
2022-10-26T09:31:18.350Z,8.20
2022-10-26T09:33:46.368Z,8.07
2022-10-26T09:36:19.668Z,6.87
2022-10-26T09:38:53.901Z,7.90
2022-10-26T09:41:29.553Z,6.07
2022-10-26T09:44:05.081Z,5.00
2022-10-26T09:46:41.465Z,6.30
2022-10-26T09:49:13.834Z,7.07
2022-10-26T09:51:43.063Z,5.10
2022-10-26T09:54:16.134Z,7.37
2022-10-26T09:56:48.749Z,6.07
2022-10-26T09:59:19.398Z,7.87
2022-10-26T10:01:47.461Z,7.67
2022-10-26T10:04:24.052Z,5.47
2022-10-26T10:06:52.989Z,5.90
2022-10-26T10:09:22.387Z,6.57
2022-10-26T10:11:56.761Z,8.03
2022-10-26T10:14:26.574Z,6.33
2022-10-26T10:16:57.039Z,7.20
2022-10-26T10:19:27.350Z,6.83
2022-10-26T10:22:00.927Z,4.70
2022-10-26T10:24:31.290Z,7.77
2022-10-26T10:27:06.460Z,6.43
2022-10-26T10:29:40.767Z,7.77
2022-10-26T10:32:17.028Z,8.53
2022-10-26T10:34:46.016Z,7.50
2022-10-26T10:37:25.445Z,6.73
2022-10-26T10:39:59.001Z,5.97
2022-10-26T10:42:32.254Z,5.17
2022-10-26T10:45:01.784Z,6.57
2022-10-26T10:47:32.101Z,7.50
2022-10-26T10:50:03.472Z,9.93
2022-10-26T10:52:33.213Z,6.73
2022-10-26T10:55:20.565Z,5.93
2022-10-26T10:58:03.931Z,5.47
2022-10-26T11:00:35.518Z,4.60
2022-10-26T11:03:16.759Z,8.70
2022-10-26T11:05:57.540Z,4.47
2022-10-26T11:08:30.493Z,5.30
2022-10-26T11:11:03.946Z,6.23
2022-10-26T11:13:39.224Z,5.90
2022-10-26T11:16:13.338Z,5.60
2022-10-26T11:18:45.401Z,7.10
2022-10-26T11:21:22.070Z,6.83
2022-10-26T11:23:53.865Z,3.83
2022-10-26T11:26:28.133Z,5.73
2022-10-26T11:29:02.688Z,4.87
2022-10-26T11:31:34.134Z,6.40
2022-10-26T11:34:17.717Z,4.33
2022-10-26T11:36:50.648Z,4.40
2022-10-26T11:39:25.964Z,4.60
2022-10-26T11:42:00.868Z,4.07
2022-10-26T11:44:36.891Z,5.53
2022-10-26T11:47:08.394Z,4.47
2022-10-26T11:49:43.484Z,4.40
2022-10-26T11:52:17.699Z,5.90
2022-10-26T11:54:49.600Z,6.57
2022-10-26T11:57:18.141Z,5.67
2022-10-26T11:59:52.676Z,5.73
2022-10-26T12:02:22.493Z,6.93
2022-10-26T12:04:55.313Z,4.20
2022-10-26T12:07:27.758Z,5.77
2022-10-26T12:09:57.219Z,6.30
2022-10-26T12:12:35.108Z,4.47
2022-10-26T12:15:20.028Z,6.23
2022-10-26T12:17:54.237Z,8.17
2022-10-26T12:20:52.718Z,5.00
2022-10-26T12:23:33.826Z,7.03
2022-10-26T12:26:48.805Z,4.63
2022-10-26T12:29:45.659Z,6.37
2022-10-26T12:32:48.480Z,5.50
2022-10-26T12:35:44.121Z,5.90
2022-10-26T12:38:49.529Z,4.90
2022-10-26T12:41:27.400Z,3.97
2022-10-26T12:43:59.674Z,5.07
2022-10-26T12:46:45.341Z,5.87
2022-10-26T12:50:00.866Z,5.87
2022-10-26T12:52:57.958Z,4.40
2022-10-26T12:56:05.244Z,5.63
2022-10-26T12:59:04.899Z,6.17
2022-10-26T13:01:59.520Z,8.13
2022-10-26T13:04:57.925Z,9.53
2022-10-26T13:07:26.998Z,5.87
2022-10-26T13:10:06.018Z,4.40
2022-10-26T13:12:46.509Z,5.60
2022-10-26T13:15:27.013Z,6.00
2022-10-26T13:18:08.719Z,6.37
2022-10-26T13:20:38.767Z,5.13
2022-10-26T13:23:20.673Z,4.90
2022-10-26T13:26:09.426Z,3.73
2022-10-26T13:28:47.153Z,3.90
2022-10-26T13:31:41.394Z,5.17
2022-10-26T13:36:54.301Z,2.93
2022-10-26T13:39:25.282Z,5.20
2022-10-26T13:41:58.419Z,5.90
2022-10-26T13:44:29.669Z,3.57
2022-10-26T13:47:02.090Z,5.07
2022-10-26T13:49:34.230Z,5.27
2022-10-26T13:52:05.419Z,3.70
2022-10-26T13:54:38.305Z,4.27
2022-10-26T13:57:16.475Z,5.13
2022-10-26T13:59:46.443Z,4.10
2022-10-26T14:02:20.841Z,5.97
2022-10-26T14:04:49.795Z,4.00
2022-10-26T14:07:22.798Z,6.73
2022-10-26T14:09:52.720Z,4.87
2022-10-26T14:12:22.843Z,6.60
2022-10-26T14:14:51.494Z,4.27
2022-10-26T14:17:25.630Z,4.97
2022-10-26T14:19:54.436Z,5.50
2022-10-26T14:22:24.493Z,6.43
2022-10-26T14:27:33.238Z,5.43
2022-10-26T14:30:21.629Z,5.37
2022-10-26T14:32:51.534Z,6.77
2022-10-26T14:35:23.957Z,4.73
2022-10-26T14:37:54.873Z,7.27
2022-10-26T14:40:25.821Z,4.67
2022-10-26T14:42:57.751Z,3.63
2022-10-26T14:45:47.711Z,5.77
2022-10-26T14:48:23.972Z,5.63
2022-10-26T14:51:10.726Z,6.50
2022-10-26T14:53:41.501Z,5.60
2022-10-26T14:56:22.731Z,5.13
2022-10-26T14:58:52.745Z,4.97
2022-10-26T15:01:31.853Z,3.00
2022-10-26T15:04:04.130Z,6.37
2022-10-26T15:06:35.396Z,5.37
2022-10-26T15:09:06.637Z,3.83
2022-10-26T15:11:36.087Z,5.70
2022-10-26T15:14:13.349Z,5.13
2022-10-26T15:16:41.728Z,5.60
2022-10-26T15:19:12.251Z,5.77
2022-10-26T15:21:46.509Z,5.87
2022-10-26T15:24:27.413Z,4.90
2022-10-26T15:26:55.664Z,6.17
2022-10-26T15:29:43.273Z,3.80
2022-10-26T15:32:30.258Z,5.53
2022-10-26T15:35:27.373Z,5.30
2022-10-26T15:37:56.757Z,2.63
2022-10-26T15:43:01.586Z,5.90
2022-10-26T15:45:33.189Z,6.33
2022-10-26T15:48:17.910Z,6.50
2022-10-26T15:50:45.944Z,6.23
2022-10-26T15:53:20.431Z,8.23
2022-10-26T15:55:48.950Z,6.27
2022-10-26T15:58:17.535Z,9.00
2022-10-26T16:00:47.272Z,10.33
2022-10-26T16:03:19.442Z,11.67
2022-10-26T16:05:47.578Z,13.20
2022-10-26T16:08:18.468Z,14.43
2022-10-26T16:10:48.187Z,15.93
2022-10-26T16:13:16.581Z,14.57
2022-10-26T16:15:46.013Z,14.30
2022-10-26T16:18:14.314Z,17.57
2022-10-26T16:20:42.849Z,15.23
2022-10-26T16:23:10.834Z,15.03
2022-10-26T16:25:43.131Z,11.93
2022-10-26T16:28:13.689Z,14.00
2022-10-26T16:33:15.995Z,17.03
2022-10-26T16:35:44.018Z,15.30
2022-10-26T16:38:12.043Z,13.97
2022-10-26T16:40:42.479Z,12.40
2022-10-26T16:43:10.552Z,12.83
2022-10-26T16:45:40.789Z,11.03
2022-10-26T16:48:14.377Z,10.23
2022-10-26T16:50:43.909Z,10.53
2022-10-26T16:53:11.961Z,9.97
2022-10-26T16:55:40.038Z,8.77
2022-10-26T16:58:08.262Z,8.17
2022-10-26T17:00:36.774Z,10.37
2022-10-26T17:03:05.091Z,8.00
2022-10-26T17:05:33.519Z,7.80
2022-10-26T17:08:02.866Z,9.33
2022-10-26T17:10:30.837Z,11.83
2022-10-26T17:12:58.834Z,10.37
2022-10-26T17:15:29.029Z,8.83
2022-10-26T17:17:57.451Z,8.07
2022-10-26T17:20:25.462Z,5.87
2022-10-26T17:22:53.542Z,10.97
2022-10-26T17:25:22.961Z,8.60
2022-10-26T17:27:51.058Z,9.70
2022-10-26T17:30:19.253Z,8.80
2022-10-26T17:32:47.373Z,10.70
2022-10-26T17:35:16.855Z,9.43
2022-10-26T17:37:44.936Z,8.27
2022-10-26T17:40:13.555Z,9.37
2022-10-26T17:42:42.925Z,7.87
2022-10-26T17:45:11.478Z,8.80
2022-10-26T17:47:39.479Z,7.57
2022-10-26T17:50:09.096Z,6.30
2022-10-26T17:52:37.370Z,6.50
2022-10-26T17:55:05.904Z,9.80
2022-10-26T17:57:34.252Z,9.33
2022-10-26T18:00:04.137Z,6.33
2022-10-26T18:02:40.524Z,6.40
2022-10-26T18:05:09.640Z,7.33
2022-10-26T18:07:37.622Z,7.30
2022-10-26T18:10:13.765Z,6.67
2022-10-26T18:12:54.067Z,6.87
2022-10-26T18:15:24.781Z,8.17
2022-10-26T18:17:56.850Z,7.33
2022-10-26T18:20:26.480Z,9.13
2022-10-26T18:22:54.433Z,6.00
2022-10-26T18:25:22.826Z,11.70
2022-10-26T18:27:50.874Z,6.87
2022-10-26T18:30:18.982Z,6.53
2022-10-26T18:32:50.421Z,7.13
2022-10-26T18:35:19.639Z,8.33
2022-10-26T18:37:47.955Z,8.77
2022-10-26T18:40:16.269Z,5.77
2022-10-26T18:42:44.274Z,9.40
2022-10-26T18:45:12.727Z,5.47
2022-10-26T18:47:40.734Z,5.33
2022-10-26T18:50:10.465Z,8.50
2022-10-26T18:52:38.439Z,6.77
2022-10-26T18:55:07.306Z,5.27
2022-10-26T18:57:35.341Z,9.17
2022-10-26T19:00:03.349Z,7.27
2022-10-26T19:02:31.335Z,8.13
2022-10-26T19:04:59.694Z,6.07
2022-10-26T19:07:29.016Z,4.43
2022-10-26T19:09:57.034Z,5.83
2022-10-26T19:12:25.098Z,7.67
2022-10-26T19:14:53.099Z,5.93
2022-10-26T19:17:21.942Z,8.13
2022-10-26T19:19:49.917Z,5.10
2022-10-26T19:22:17.877Z,6.30
2022-10-26T19:24:48.245Z,6.90
2022-10-26T19:29:49.158Z,6.97
2022-10-26T19:32:17.128Z,8.03
2022-10-26T19:34:45.355Z,7.70
2022-10-26T19:37:13.455Z,9.03
2022-10-26T19:39:41.763Z,9.60
2022-10-26T19:42:11.090Z,11.47
2022-10-26T19:44:39.100Z,6.77
2022-10-26T19:47:07.189Z,10.40
2022-10-26T19:49:35.190Z,9.03
2022-10-26T19:52:03.179Z,10.17
2022-10-26T19:54:31.154Z,8.70
2022-10-26T19:56:59.141Z,7.83
2022-10-26T19:59:28.600Z,8.23
2022-10-26T20:01:57.879Z,11.43
2022-10-26T20:04:25.904Z,8.20
2022-10-26T20:06:54.025Z,6.50
2022-10-26T20:09:22.035Z,9.47
2022-10-26T20:11:50.009Z,7.03
2022-10-26T20:14:17.989Z,11.03
2022-10-26T20:16:47.324Z,5.83
2022-10-26T20:19:15.320Z,7.23
2022-10-26T20:21:43.385Z,11.30
2022-10-26T20:24:11.575Z,9.30
2022-10-26T20:26:40.043Z,10.43
2022-10-26T20:29:08.116Z,9.67
2022-10-26T20:31:36.107Z,9.07
2022-10-26T20:34:05.657Z,9.13
2022-10-26T20:36:33.698Z,8.13
2022-10-26T20:39:02.214Z,8.43
2022-10-26T20:41:30.649Z,11.67
2022-10-26T20:43:59.170Z,7.27
2022-10-26T20:46:28.689Z,7.50
2022-10-26T20:48:57.265Z,9.43
2022-10-26T20:51:44.491Z,8.67
2022-10-26T20:54:30.249Z,9.17
2022-10-26T20:57:01.643Z,8.90
2022-10-26T20:59:36.401Z,12.27
2022-10-26T21:02:04.561Z,13.03
2022-10-26T21:04:32.797Z,10.20
2022-10-26T21:07:02.114Z,10.27
2022-10-26T21:09:32.932Z,10.47
2022-10-26T21:12:04.816Z,11.47
2022-10-26T21:14:35.814Z,12.50
2022-10-26T21:17:03.810Z,12.23
2022-10-26T21:19:31.871Z,12.27
2022-10-26T21:22:01.502Z,11.20
2022-10-26T21:24:29.640Z,13.03
2022-10-26T21:26:57.713Z,10.57
2022-10-26T21:29:25.828Z,10.73
2022-10-26T21:31:53.814Z,11.47
2022-10-26T21:34:21.805Z,12.30
2022-10-26T21:36:49.794Z,11.20
2022-10-26T21:39:19.170Z,11.30
2022-10-26T21:41:47.194Z,12.67
2022-10-26T21:44:32.746Z,14.17
2022-10-26T21:47:03.161Z,14.23
2022-10-26T21:49:31.163Z,11.27
2022-10-26T21:51:59.171Z,14.87
2022-10-26T21:54:28.533Z,11.77
2022-10-26T21:56:56.523Z,14.20
2022-10-26T21:59:24.645Z,11.90
2022-10-26T22:01:52.760Z,11.97
2022-10-26T22:04:20.787Z,14.80
2022-10-26T22:06:48.779Z,11.53
2022-10-26T22:09:16.922Z,15.90
2022-10-26T22:11:46.281Z,14.27
2022-10-26T22:14:15.258Z,13.20
2022-10-26T22:16:43.258Z,11.33
2022-10-26T22:19:11.361Z,16.50
2022-10-26T22:21:40.955Z,14.20
2022-10-26T22:24:09.610Z,12.77
2022-10-26T22:26:38.755Z,12.07
2022-10-26T22:29:08.149Z,14.77
2022-10-26T22:31:39.409Z,13.53
2022-10-26T22:34:16.234Z,13.73
2022-10-26T22:36:44.702Z,14.90
2022-10-26T22:39:12.665Z,14.57
2022-10-26T22:41:40.690Z,15.67
2022-10-26T22:44:10.303Z,12.73
2022-10-26T22:46:38.317Z,11.50
2022-10-26T22:49:06.418Z,16.37
2022-10-26T22:51:35.909Z,15.07
2022-10-26T22:54:05.785Z,13.73
2022-10-26T22:56:36.657Z,13.57
2022-10-26T22:59:05.862Z,12.40
2022-10-26T23:01:41.634Z,14.00
2022-10-26T23:04:11.854Z,15.53
2022-10-26T23:06:40.133Z,12.63
2022-10-26T23:09:08.281Z,13.23
2022-10-26T23:11:36.549Z,14.77
2022-10-26T23:14:05.054Z,12.60
2022-10-26T23:16:33.044Z,15.60
2022-10-26T23:19:02.398Z,13.83
2022-10-26T23:21:30.450Z,11.73
2022-10-26T23:23:58.629Z,11.40
2022-10-26T23:26:26.954Z,11.67
2022-10-26T23:28:54.988Z,12.80
2022-10-26T23:31:25.511Z,14.07
2022-10-26T23:33:56.033Z,11.83
2022-10-26T23:36:25.676Z,15.07
2022-10-26T23:38:53.709Z,12.57
2022-10-26T23:41:21.740Z,13.30
2022-10-26T23:43:49.716Z,12.90
2022-10-26T23:46:17.783Z,13.93
2022-10-26T23:48:45.830Z,13.63
2022-10-26T23:51:13.832Z,13.33
2022-10-26T23:53:43.189Z,13.70
2022-10-26T23:56:11.242Z,14.40
2022-10-26T23:58:39.278Z,13.17
